Time;durP1;ratioP1;P1;durP2;ratioP2;P2;SDS_P1;SDS_P2;PMS_P1;PMS_P2;Temp;Humidity;BMP_temperature;BMP_pressure;BME280_temperature;BME280_humidity;BME280_pressure;Samples;Min_cycle;Max_cycle;Signal;HPM_P1;HPM_P2
2022/02/12 00:00:43;;;;;;;16.43;6.07;;;;;;;;;;4973448;28;20277;-74
2022/02/12 00:03:09;;;;;;;14.13;5.73;;;;;;;;;;4956701;28;20237;-74
2022/02/12 00:05:34;;;;;;;15.23;5.50;;;;;;;;;;4969052;28;20226;-74
2022/02/12 00:08:03;;;;;;;13.47;5.50;;;;;;;;;;4962528;28;20648;-74
2022/02/12 00:10:29;;;;;;;12.53;5.70;;;;;;;;;;4949025;28;20236;-74
2022/02/12 00:12:55;;;;;;;13.00;5.53;;;;;;;;;;4956959;28;20233;-75
2022/02/12 00:15:23;;;;;;;9.73;5.33;;;;;;;;;;4972937;28;20210;-76
2022/02/12 00:17:49;;;;;;;12.90;6.40;;;;;;;;;;4973551;28;20230;-75
2022/02/12 00:20:15;;;;;;;15.67;5.57;;;;;;;;;;4953524;28;20226;-74
2022/02/12 00:22:45;;;;;;;15.47;5.77;;;;;;;;;;4953436;28;20713;-75
2022/02/12 00:25:15;;;;;;;15.80;5.97;;;;;;;;;;4973415;28;20214;-74
2022/02/12 00:27:45;;;;;;;11.33;5.87;;;;;;;;;;4973339;28;20230;-75
2022/02/12 00:30:13;;;;;;;14.30;6.57;;;;;;;;;;4987961;28;20249;-75
2022/02/12 00:32:38;;;;;;;10.17;5.80;;;;;;;;;;4973309;28;20233;-74
2022/02/12 00:35:04;;;;;;;14.83;6.23;;;;;;;;;;4972265;28;20225;-75
2022/02/12 00:37:30;;;;;;;15.03;5.77;;;;;;;;;;4964944;28;20747;-74
2022/02/12 00:39:56;;;;;;;19.13;5.80;;;;;;;;;;4972663;28;20304;-74
2022/02/12 00:42:32;;;;;;;12.30;4.60;;;;;;;;;;4956585;28;20234;-74
2022/02/12 00:44:58;;;;;;;13.13;5.23;;;;;;;;;;4956832;28;20222;-74
2022/02/12 00:47:24;;;;;;;14.63;5.30;;;;;;;;;;4972331;28;20676;-74
2022/02/12 00:49:50;;;;;;;12.90;5.20;;;;;;;;;;4971943;28;20234;-74
2022/02/12 00:52:15;;;;;;;9.20;5.40;;;;;;;;;;4972038;28;20244;-75
2022/02/12 00:54:43;;;;;;;14.63;5.50;;;;;;;;;;4957986;28;20231;-73
2022/02/12 00:57:14;;;;;;;17.00;5.03;;;;;;;;;;4956282;28;20261;-74
2022/02/12 00:59:40;;;;;;;13.53;4.50;;;;;;;;;;4973271;28;20716;-75
2022/02/12 01:02:12;;;;;;;12.43;4.10;;;;;;;;;;4936731;28;20226;-75
2022/02/12 01:04:40;;;;;;;15.20;4.50;;;;;;;;;;4957474;28;20234;-74
2022/02/12 01:07:05;;;;;;;15.57;4.60;;;;;;;;;;4942301;28;20230;-74
2022/02/12 01:09:31;;;;;;;15.93;4.80;;;;;;;;;;4972167;28;20234;-76
2022/02/12 01:11:57;;;;;;;15.50;4.90;;;;;;;;;;4955856;28;20711;-74
2022/02/12 01:14:24;;;;;;;10.23;4.53;;;;;;;;;;4971794;28;20581;-76
2022/02/12 01:16:53;;;;;;;10.30;4.47;;;;;;;;;;4953125;28;20620;-73
2022/02/12 01:19:23;;;;;;;8.83;4.10;;;;;;;;;;4954676;28;20309;-74
2022/02/12 01:21:51;;;;;;;13.10;4.50;;;;;;;;;;4950521;28;20244;-73
2022/02/12 01:24:22;;;;;;;18.07;6.03;;;;;;;;;;4972530;28;20234;-75
2022/02/12 01:26:51;;;;;;;16.50;5.70;;;;;;;;;;4972966;28;20226;-75
2022/02/12 01:29:19;;;;;;;12.83;5.80;;;;;;;;;;4955653;28;20226;-74
2022/02/12 01:31:44;;;;;;;12.60;5.40;;;;;;;;;;4955717;28;20772;-74
2022/02/12 01:34:12;;;;;;;11.10;5.87;;;;;;;;;;4939622;28;20306;-75
2022/02/12 01:36:40;;;;;;;12.33;5.43;;;;;;;;;;4983410;28;20613;-74
2022/02/12 01:39:06;;;;;;;15.60;5.90;;;;;;;;;;4955938;28;20231;-75
2022/02/12 01:41:36;;;;;;;15.70;5.30;;;;;;;;;;4959005;28;20218;-75
2022/02/12 01:44:06;;;;;;;14.57;5.30;;;;;;;;;;4971936;28;20486;-74
2022/02/12 01:46:34;;;;;;;16.53;5.80;;;;;;;;;;4955668;28;20232;-75
2022/02/12 01:49:00;;;;;;;13.60;5.67;;;;;;;;;;4956166;28;20233;-75
2022/02/12 01:51:26;;;;;;;12.40;4.80;;;;;;;;;;4970685;28;20320;-76
2022/02/12 01:53:56;;;;;;;15.43;5.57;;;;;;;;;;4979916;28;20214;-76
2022/02/12 01:56:27;;;;;;;14.97;5.40;;;;;;;;;;4959006;28;20247;-75
2022/02/12 01:58:53;;;;;;;12.47;5.07;;;;;;;;;;4958421;28;20654;-75
2022/02/12 02:01:20;;;;;;;14.53;5.17;;;;;;;;;;4956772;28;20222;-75
2022/02/12 02:03:48;;;;;;;13.67;4.63;;;;;;;;;;4973321;28;20225;-75
2022/02/12 02:06:14;;;;;;;15.13;4.67;;;;;;;;;;4963855;28;20226;-75
2022/02/12 02:08:40;;;;;;;9.17;4.50;;;;;;;;;;4972029;28;20704;-75
2022/02/12 02:11:05;;;;;;;8.77;4.13;;;;;;;;;;4954991;28;20740;-76
2022/02/12 02:13:35;;;;;;;12.33;4.50;;;;;;;;;;4936364;29;20246;-75
2022/02/12 02:16:03;;;;;;;14.03;4.47;;;;;;;;;;4951914;28;20224;-75
2022/02/12 02:18:31;;;;;;;16.30;4.43;;;;;;;;;;4954091;28;20687;-74
2022/02/12 02:20:58;;;;;;;9.20;4.10;;;;;;;;;;4971394;28;20305;-76
2022/02/12 02:23:26;;;;;;;12.23;4.23;;;;;;;;;;4950543;28;20234;-76
2022/02/12 02:25:53;;;;;;;12.80;4.70;;;;;;;;;;4939348;28;20225;-75
2022/02/12 02:28:20;;;;;;;14.17;4.63;;;;;;;;;;4971114;28;20304;-75
2022/02/12 02:30:46;;;;;;;13.63;4.50;;;;;;;;;;4971170;28;20230;-75
2022/02/12 02:33:11;;;;;;;12.77;4.57;;;;;;;;;;4934869;28;20223;-74
2022/02/12 02:35:38;;;;;;;7.13;4.83;;;;;;;;;;4966419;28;20360;-73
2022/02/12 02:38:09;;;;;;;12.60;4.90;;;;;;;;;;4968177;28;20218;-75
2022/02/12 02:40:37;;;;;;;12.17;4.67;;;;;;;;;;4955835;28;20881;-75
2022/02/12 02:43:05;;;;;;;14.67;5.33;;;;;;;;;;4970612;28;20598;-76
2022/02/12 02:45:31;;;;;;;14.20;4.53;;;;;;;;;;4971754;28;20222;-75
2022/02/12 02:48:01;;;;;;;16.27;5.27;;;;;;;;;;4936192;29;20222;-75
2022/02/12 02:56:03;;;;;;;11.40;4.83;;;;;;;;;;4971823;28;20234;-74
2022/02/12 02:58:38;;;;;;;11.33;4.70;;;;;;;;;;4955724;28;20305;-74
2022/02/12 03:01:16;;;;;;;13.00;5.07;;;;;;;;;;4953038;28;20230;-74
2022/02/12 03:03:43;;;;;;;8.90;4.37;;;;;;;;;;4965671;28;20237;-74
2022/02/12 03:06:12;;;;;;;10.13;4.10;;;;;;;;;;4962342;28;20226;-76
2022/02/12 03:08:38;;;;;;;10.33;4.13;;;;;;;;;;4973253;28;20301;-75
2022/02/12 03:11:06;;;;;;;20.73;4.30;;;;;;;;;;4974351;28;20317;-76
2022/02/12 03:13:37;;;;;;;12.37;4.10;;;;;;;;;;4959056;28;20226;-74
2022/02/12 03:16:02;;;;;;;15.37;3.90;;;;;;;;;;4974701;28;20704;-74
2022/02/12 03:18:28;;;;;;;13.47;3.90;;;;;;;;;;4938810;29;20289;-74
2022/02/12 03:20:54;;;;;;;11.40;4.53;;;;;;;;;;4964554;28;20273;-74
2022/02/12 03:23:20;;;;;;;18.70;4.40;;;;;;;;;;4973677;28;20214;-74
2022/02/12 03:25:50;;;;;;;13.23;3.97;;;;;;;;;;4958661;28;20305;-74
2022/02/12 03:28:20;;;;;;;13.47;3.87;;;;;;;;;;4938867;28;20257;-74
2022/02/12 03:30:46;;;;;;;12.63;3.97;;;;;;;;;;4954889;28;20261;-74
2022/02/12 03:33:11;;;;;;;9.70;3.63;;;;;;;;;;4973320;28;20603;-74
2022/02/12 03:35:37;;;;;;;12.30;3.63;;;;;;;;;;4970231;28;20223;-74
2022/02/12 03:38:15;;;;;;;13.70;4.07;;;;;;;;;;4981931;28;20214;-74
2022/02/12 03:40:49;;;;;;;13.93;4.07;;;;;;;;;;4974394;28;20230;-74
2022/02/12 03:43:17;;;;;;;13.10;4.00;;;;;;;;;;4957919;28;20633;-75
2022/02/12 03:45:45;;;;;;;11.50;3.60;;;;;;;;;;4973952;28;20230;-74
2022/02/12 03:48:16;;;;;;;10.90;3.73;;;;;;;;;;4937947;28;20219;-75
2022/02/12 03:50:42;;;;;;;19.47;4.30;;;;;;;;;;4956118;28;20238;-74
2022/02/12 03:53:08;;;;;;;15.67;4.00;;;;;;;;;;4957366;28;20225;-74
2022/02/12 03:55:44;;;;;;;10.77;3.40;;;;;;;;;;4973689;28;20773;-75
2022/02/12 03:58:12;;;;;;;12.30;4.13;;;;;;;;;;4954802;28;20273;-75
2022/02/12 04:00:40;;;;;;;12.10;3.87;;;;;;;;;;4973689;28;20219;-74
2022/02/12 04:03:06;;;;;;;10.27;3.53;;;;;;;;;;4972784;28;20230;-74
2022/02/12 04:05:31;;;;;;;16.00;4.43;;;;;;;;;;4953153;28;21186;-74
2022/02/12 04:07:57;;;;;;;15.87;4.93;;;;;;;;;;4946307;28;20302;-74
2022/02/12 04:10:25;;;;;;;10.80;4.77;;;;;;;;;;4959220;28;20237;-74
2022/02/12 04:12:53;;;;;;;17.83;6.57;;;;;;;;;;4973538;28;20612;-74
2022/02/12 04:15:18;;;;;;;13.30;6.07;;;;;;;;;;4956992;28;20222;-73
2022/02/12 04:17:47;;;;;;;19.77;5.67;;;;;;;;;;4973510;28;20234;-74
2022/02/12 04:20:14;;;;;;;15.97;5.40;;;;;;;;;;4928938;28;20352;-74
2022/02/12 04:22:41;;;;;;;9.63;4.80;;;;;;;;;;4938029;28;20314;-75
2022/02/12 04:25:08;;;;;;;17.30;4.80;;;;;;;;;;4968263;28;20673;-76
2022/02/12 04:27:36;;;;;;;12.37;4.60;;;;;;;;;;4972875;28;20229;-75
2022/02/12 04:30:07;;;;;;;14.30;4.33;;;;;;;;;;4972274;28;20305;-75
2022/02/12 04:32:35;;;;;;;13.10;3.87;;;;;;;;;;4973112;28;20374;-74
2022/02/12 04:35:07;;;;;;;14.20;3.90;;;;;;;;;;4972356;28;20230;-74
2022/02/12 04:37:34;;;;;;;11.73;3.93;;;;;;;;;;4961436;28;20699;-75
2022/02/12 04:40:00;;;;;;;16.77;4.37;;;;;;;;;;4965141;28;20360;-75
2022/02/12 04:42:28;;;;;;;10.93;3.97;;;;;;;;;;4972104;28;20234;-75
2022/02/12 04:44:54;;;;;;;14.50;4.70;;;;;;;;;;4956842;28;20222;-74
2022/02/12 04:47:24;;;;;;;10.37;3.87;;;;;;;;;;4955728;28;20699;-75
2022/02/12 04:49:50;;;;;;;8.20;3.27;;;;;;;;;;4970006;28;20260;-75
2022/02/12 04:52:21;;;;;;;9.70;3.80;;;;;;;;;;4952243;28;20238;-76
2022/02/12 04:54:51;;;;;;;11.70;3.60;;;;;;;;;;4977401;28;20226;-75
2022/02/12 04:57:17;;;;;;;14.73;3.77;;;;;;;;;;4956263;28;20226;-75
2022/02/12 04:59:48;;;;;;;12.67;3.90;;;;;;;;;;4972503;28;20614;-75
2022/02/12 05:02:16;;;;;;;12.13;3.43;;;;;;;;;;4973090;28;20227;-75
2022/02/12 05:04:44;;;;;;;10.83;3.60;;;;;;;;;;4972345;28;20700;-75
2022/02/12 05:07:12;;;;;;;8.43;3.20;;;;;;;;;;4960572;28;20239;-75
2022/02/12 05:09:38;;;;;;;11.63;3.50;;;;;;;;;;4958159;28;20261;-75
2022/02/12 05:12:04;;;;;;;10.90;3.70;;;;;;;;;;4970800;28;20224;-75
2022/02/12 05:14:32;;;;;;;11.60;3.47;;;;;;;;;;4956319;28;20244;-75
2022/02/12 05:16:58;;;;;;;9.53;3.33;;;;;;;;;;4972591;28;20226;-75
2022/02/12 05:19:24;;;;;;;16.43;3.70;;;;;;;;;;4955562;28;20220;-74
2022/02/12 05:21:50;;;;;;;11.10;3.00;;;;;;;;;;4971754;28;20223;-75
2022/02/12 05:24:16;;;;;;;11.47;2.87;;;;;;;;;;4972241;28;20229;-75
2022/02/12 05:26:44;;;;;;;7.20;3.17;;;;;;;;;;4936900;28;20219;-74
2022/02/12 05:29:12;;;;;;;12.77;3.03;;;;;;;;;;4951464;28;20701;-75
2022/02/12 05:31:37;;;;;;;11.67;3.57;;;;;;;;;;4985316;28;20253;-73
2022/02/12 05:34:05;;;;;;;11.63;3.47;;;;;;;;;;4955663;28;20313;-75
2022/02/12 05:36:33;;;;;;;19.53;4.00;;;;;;;;;;4968210;28;20377;-73
2022/02/12 05:39:02;;;;;;;15.10;3.50;;;;;;;;;;4952521;28;20230;-73
2022/02/12 05:41:31;;;;;;;11.67;3.13;;;;;;;;;;4954932;28;20309;-75
2022/02/12 05:43:57;;;;;;;12.30;3.70;;;;;;;;;;4971874;28;20230;-75
2022/02/12 05:46:25;;;;;;;12.13;4.13;;;;;;;;;;4972855;28;20360;-77
2022/02/12 05:48:55;;;;;;;12.67;4.00;;;;;;;;;;4956169;28;20272;-76
2022/02/12 05:51:31;;;;;;;8.60;3.07;;;;;;;;;;4956084;28;20222;-76
2022/02/12 05:53:58;;;;;;;8.47;3.10;;;;;;;;;;4988053;28;20309;-75
2022/02/12 05:56:23;;;;;;;8.57;3.43;;;;;;;;;;4971488;28;20592;-76
2022/02/12 05:58:51;;;;;;;12.73;3.57;;;;;;;;;;4954336;28;20225;-75
2022/02/12 06:01:16;;;;;;;15.93;3.67;;;;;;;;;;4955195;28;20226;-75
2022/02/12 06:03:44;;;;;;;10.30;3.33;;;;;;;;;;4956143;28;20249;-75
2022/02/12 06:06:10;;;;;;;10.83;3.80;;;;;;;;;;4953687;28;20736;-75
2022/02/12 06:08:35;;;;;;;14.60;4.10;;;;;;;;;;4971675;28;20230;-75
2022/02/12 06:11:08;;;;;;;11.40;3.87;;;;;;;;;;4972693;28;20237;-75
2022/02/12 06:13:34;;;;;;;13.00;3.90;;;;;;;;;;4984619;28;20594;-75
2022/02/12 06:16:04;;;;;;;8.33;3.87;;;;;;;;;;4971864;28;20241;-75
2022/02/12 06:18:35;;;;;;;13.90;3.97;;;;;;;;;;4971861;28;20727;-76
2022/02/12 06:21:00;;;;;;;12.20;4.33;;;;;;;;;;4971012;28;20305;-76
2022/02/12 06:23:28;;;;;;;11.03;4.13;;;;;;;;;;4953751;28;20774;-75
2022/02/12 06:25:54;;;;;;;12.43;3.87;;;;;;;;;;4955068;28;20323;-74
2022/02/12 06:28:20;;;;;;;13.17;4.07;;;;;;;;;;4970907;28;20234;-75
2022/02/12 06:30:45;;;;;;;12.07;4.57;;;;;;;;;;4969013;28;20280;-76
2022/02/12 06:33:13;;;;;;;14.73;4.17;;;;;;;;;;4985026;28;20226;-75
2022/02/12 06:35:46;;;;;;;9.87;3.83;;;;;;;;;;4966768;28;20235;-74
2022/02/12 06:38:14;;;;;;;10.50;4.17;;;;;;;;;;4947031;28;20310;-73
2022/02/12 06:40:40;;;;;;;14.03;4.37;;;;;;;;;;4970898;28;20226;-74
2022/02/12 06:43:08;;;;;;;10.90;3.80;;;;;;;;;;4969821;28;20233;-75
2022/02/12 06:45:39;;;;;;;19.97;4.50;;;;;;;;;;4971993;28;20226;-74
2022/02/12 06:48:07;;;;;;;9.57;3.93;;;;;;;;;;4936444;28;20583;-74
2022/02/12 06:50:36;;;;;;;10.20;4.40;;;;;;;;;;4952551;28;20219;-75
2022/02/12 06:53:03;;;;;;;10.63;4.17;;;;;;;;;;4969490;28;20925;-75
2022/02/12 06:55:29;;;;;;;14.83;4.37;;;;;;;;;;4970330;28;20230;-76
2022/02/12 06:57:57;;;;;;;9.27;4.37;;;;;;;;;;4972024;28;20291;-76
2022/02/12 07:00:28;;;;;;;7.97;4.50;;;;;;;;;;4971113;28;20229;-74
2022/02/12 07:02:53;;;;;;;11.40;4.77;;;;;;;;;;4972175;28;20230;-74
2022/02/12 07:05:19;;;;;;;11.67;4.10;;;;;;;;;;4968224;28;20713;-75
2022/02/12 07:07:50;;;;;;;11.43;4.10;;;;;;;;;;4960703;28;20241;-74
2022/02/12 07:10:16;;;;;;;15.70;4.50;;;;;;;;;;4951772;28;20248;-74
2022/02/12 07:12:44;;;;;;;13.40;4.20;;;;;;;;;;4969509;28;20226;-76
2022/02/12 07:15:10;;;;;;;11.87;4.17;;;;;;;;;;4969393;28;20240;-75
2022/02/12 07:17:39;;;;;;;14.10;4.70;;;;;;;;;;4935232;29;20222;-74
2022/02/12 07:20:11;;;;;;;9.60;3.93;;;;;;;;;;4968038;28;20218;-74
2022/02/12 07:22:40;;;;;;;9.73;4.07;;;;;;;;;;4969740;28;20234;-74
2022/02/12 07:25:11;;;;;;;15.70;4.33;;;;;;;;;;4964617;28;20226;-75
2022/02/12 07:27:39;;;;;;;15.33;4.33;;;;;;;;;;4946308;28;20708;-75
2022/02/12 07:30:06;;;;;;;14.87;4.30;;;;;;;;;;4953801;28;20786;-75
2022/02/12 07:32:32;;;;;;;15.87;6.90;;;;;;;;;;4969277;28;20662;-75
2022/02/12 07:35:02;;;;;;;21.67;10.30;;;;;;;;;;4970452;28;20778;-74
2022/02/12 07:37:32;;;;;;;24.20;11.03;;;;;;;;;;4962806;28;20226;-74
2022/02/12 07:40:01;;;;;;;23.70;11.37;;;;;;;;;;4963228;28;20293;-76
2022/02/12 07:42:26;;;;;;;26.20;11.73;;;;;;;;;;4978526;28;20309;-76
2022/02/12 07:44:54;;;;;;;23.20;10.67;;;;;;;;;;4995544;28;20864;-75
2022/02/12 07:47:22;;;;;;;26.80;11.07;;;;;;;;;;4974517;28;20222;-74
2022/02/12 07:49:50;;;;;;;19.47;8.33;;;;;;;;;;4955370;28;20238;-75
2022/02/12 07:52:15;;;;;;;15.10;5.93;;;;;;;;;;4955373;28;20229;-75
2022/02/12 07:54:43;;;;;;;19.53;6.20;;;;;;;;;;4988105;28;20281;-75
2022/02/12 07:57:14;;;;;;;12.17;5.87;;;;;;;;;;4957705;28;20697;-74
2022/02/12 07:59:43;;;;;;;14.93;6.27;;;;;;;;;;4958201;28;20719;-74
2022/02/12 08:02:08;;;;;;;16.10;5.93;;;;;;;;;;4957222;28;20226;-74
2022/02/12 08:04:34;;;;;;;13.50;5.00;;;;;;;;;;4940934;28;20658;-76
2022/02/12 08:09:46;;;;;;;18.07;4.40;;;;;;;;;;4972658;28;20230;-75
2022/02/12 08:12:14;;;;;;;10.33;4.70;;;;;;;;;;4953987;28;20623;-75
2022/02/12 08:14:45;;;;;;;13.00;5.10;;;;;;;;;;4973001;28;20236;-74
2022/02/12 08:17:15;;;;;;;19.47;6.20;;;;;;;;;;4970307;28;20218;-75
2022/02/12 08:19:40;;;;;;;18.60;6.10;;;;;;;;;;4957560;28;20234;-75
2022/02/12 08:22:06;;;;;;;13.80;5.27;;;;;;;;;;4938046;28;20226;-74
2022/02/12 08:24:34;;;;;;;9.20;5.13;;;;;;;;;;4973159;28;20254;-75
2022/02/12 08:27:05;;;;;;;13.57;4.87;;;;;;;;;;4956684;28;20313;-75
2022/02/12 08:29:33;;;;;;;15.57;5.07;;;;;;;;;;4955954;28;20229;-75
2022/02/12 08:31:59;;;;;;;13.17;4.47;;;;;;;;;;4974789;28;20260;-74
2022/02/12 08:34:28;;;;;;;19.53;5.33;;;;;;;;;;4955981;28;20222;-74
2022/02/12 08:36:56;;;;;;;16.47;4.97;;;;;;;;;;4948553;28;20637;-74
2022/02/12 08:39:22;;;;;;;13.10;4.90;;;;;;;;;;4969243;28;21826;-75
2022/02/12 08:41:50;;;;;;;14.33;5.07;;;;;;;;;;4956286;28;20262;-74
2022/02/12 08:44:18;;;;;;;16.47;6.13;;;;;;;;;;4957907;28;20233;-73
2022/02/12 08:46:46;;;;;;;11.77;5.13;;;;;;;;;;4972898;28;20230;-74
2022/02/12 08:49:11;;;;;;;17.90;5.57;;;;;;;;;;4947319;28;20301;-74
2022/02/12 08:51:47;;;;;;;14.73;4.93;;;;;;;;;;4972318;28;20229;-74
2022/02/12 08:54:20;;;;;;;15.77;6.13;;;;;;;;;;4956551;28;20233;-76
2022/02/12 08:56:46;;;;;;;11.37;5.03;;;;;;;;;;4972576;28;20230;-75
2022/02/12 08:59:12;;;;;;;16.53;4.70;;;;;;;;;;4971917;28;20229;-74
2022/02/12 09:01:43;;;;;;;12.97;5.17;;;;;;;;;;4972184;28;20217;-76
2022/02/12 09:04:09;;;;;;;13.80;5.07;;;;;;;;;;4971796;28;20305;-76
2022/02/12 09:06:38;;;;;;;13.70;5.03;;;;;;;;;;4970066;28;20210;-75
2022/02/12 09:09:04;;;;;;;14.83;4.77;;;;;;;;;;4939956;28;20233;-73
2022/02/12 09:11:32;;;;;;;14.13;4.83;;;;;;;;;;4970369;28;20274;-75
2022/02/12 09:14:03;;;;;;;12.63;5.27;;;;;;;;;;4956780;28;20704;-75
2022/02/12 09:16:34;;;;;;;8.43;4.50;;;;;;;;;;4942968;28;20736;-75
2022/02/12 09:19:02;;;;;;;12.17;4.27;;;;;;;;;;4944843;28;20223;-75
2022/02/12 09:21:28;;;;;;;9.83;4.17;;;;;;;;;;4968521;28;20277;-75
2022/02/12 09:23:53;;;;;;;10.07;4.00;;;;;;;;;;4963269;28;20292;-74
2022/02/12 09:26:19;;;;;;;9.53;3.97;;;;;;;;;;4983269;28;20284;-76
2022/02/12 09:28:45;;;;;;;9.87;4.27;;;;;;;;;;4983633;28;20240;-76
2022/02/12 09:31:11;;;;;;;9.77;4.10;;;;;;;;;;4981779;28;20308;-75
2022/02/12 09:33:37;;;;;;;10.97;3.10;;;;;;;;;;4961257;28;20233;-74
2022/02/12 09:36:05;;;;;;;7.47;3.17;;;;;;;;;;4971980;28;20222;-75
2022/02/12 09:38:31;;;;;;;6.93;2.90;;;;;;;;;;4967478;28;20230;-73
2022/02/12 09:40:56;;;;;;;5.80;2.83;;;;;;;;;;4972781;28;20252;-74
2022/02/12 09:43:26;;;;;;;8.60;3.37;;;;;;;;;;4949338;28;20218;-74
2022/02/12 09:46:01;;;;;;;9.50;2.97;;;;;;;;;;4956048;28;20646;-74
2022/02/12 09:48:26;;;;;;;11.10;2.80;;;;;;;;;;4953752;28;20234;-73
2022/02/12 09:50:52;;;;;;;7.20;2.90;;;;;;;;;;4968959;28;20300;-73
2022/02/12 09:53:24;;;;;;;5.80;2.73;;;;;;;;;;4970138;28;20226;-73
2022/02/12 09:55:50;;;;;;;7.10;2.40;;;;;;;;;;4972151;28;20589;-73
2022/02/12 09:58:18;;;;;;;8.17;2.70;;;;;;;;;;4971982;28;20284;-74
2022/02/12 10:00:43;;;;;;;9.17;2.53;;;;;;;;;;4971546;28;20236;-73
2022/02/12 10:03:11;;;;;;;7.90;2.40;;;;;;;;;;4987593;28;20732;-73
2022/02/12 10:05:42;;;;;;;9.00;2.87;;;;;;;;;;4950546;28;20226;-73
2022/02/12 10:08:12;;;;;;;5.83;2.40;;;;;;;;;;4960027;28;20225;-73
2022/02/12 10:10:40;;;;;;;8.87;2.70;;;;;;;;;;4933996;28;20300;-73
2022/02/12 10:13:27;;;;;;;7.07;2.60;;;;;;;;;;4970683;28;20222;-74
2022/02/12 10:16:04;;;;;;;7.57;2.47;;;;;;;;;;4965576;28;20759;-74
2022/02/12 10:18:39;;;;;;;6.13;2.10;;;;;;;;;;4962626;28;20226;-75
2022/02/12 10:21:05;;;;;;;5.67;2.20;;;;;;;;;;4953449;28;20226;-74
2022/02/12 10:23:32;;;;;;;7.27;2.50;;;;;;;;;;4954101;28;20579;-75
2022/02/12 10:26:02;;;;;;;5.77;2.37;;;;;;;;;;4970125;28;20221;-73
2022/02/12 10:28:35;;;;;;;5.07;2.43;;;;;;;;;;4970564;28;20230;-73
2022/02/12 10:31:01;;;;;;;6.77;2.23;;;;;;;;;;4952479;28;20230;-74
2022/02/12 10:33:38;;;;;;;6.20;2.40;;;;;;;;;;4952661;28;20219;-73
2022/02/12 10:36:06;;;;;;;6.93;2.00;;;;;;;;;;4955838;28;20229;-75
2022/02/12 10:38:33;;;;;;;6.73;2.30;;;;;;;;;;4964899;28;20618;-73
2022/02/12 10:41:06;;;;;;;4.17;1.93;;;;;;;;;;4955565;28;20267;-73
2022/02/12 10:43:32;;;;;;;6.73;2.40;;;;;;;;;;4955045;28;20257;-74
2022/02/12 10:46:01;;;;;;;6.80;2.23;;;;;;;;;;4952492;28;20293;-74
2022/02/12 10:48:28;;;;;;;5.23;2.20;;;;;;;;;;4951933;28;20238;-75
2022/02/12 10:51:02;;;;;;;7.10;2.03;;;;;;;;;;4962354;28;20233;-73
2022/02/12 10:53:28;;;;;;;5.57;2.10;;;;;;;;;;4971667;28;20329;-74
2022/02/12 10:55:58;;;;;;;4.37;2.20;;;;;;;;;;4972149;28;20225;-74
2022/02/12 10:58:26;;;;;;;6.17;2.00;;;;;;;;;;4956191;28;20309;-73
2022/02/12 11:00:55;;;;;;;6.87;2.37;;;;;;;;;;4971025;28;20218;-75
2022/02/12 11:03:21;;;;;;;5.87;2.20;;;;;;;;;;4971509;28;20288;-73
2022/02/12 11:05:54;;;;;;;8.77;2.20;;;;;;;;;;4955571;28;20226;-75
2022/02/12 11:08:25;;;;;;;6.90;1.90;;;;;;;;;;4948584;28;20305;-74
2022/02/12 11:10:53;;;;;;;7.57;1.90;;;;;;;;;;4970451;28;20230;-74
2022/02/12 11:13:19;;;;;;;4.77;1.90;;;;;;;;;;4970093;28;20688;-76
2022/02/12 11:15:45;;;;;;;5.93;2.17;;;;;;;;;;4957738;28;20732;-75
2022/02/12 11:18:17;;;;;;;7.87;2.30;;;;;;;;;;4968737;28;20308;-73
2022/02/12 11:20:46;;;;;;;6.23;2.30;;;;;;;;;;4970506;28;20233;-76
2022/02/12 11:23:24;;;;;;;3.70;1.70;;;;;;;;;;4943473;28;20223;-75
2022/02/12 11:25:51;;;;;;;7.20;2.37;;;;;;;;;;4969614;28;20655;-76
2022/02/12 11:28:25;;;;;;;7.57;2.00;;;;;;;;;;4950387;28;20230;-74
2022/02/12 11:31:12;;;;;;;7.10;1.97;;;;;;;;;;4957405;28;20227;-75
2022/02/12 11:33:38;;;;;;;5.93;1.87;;;;;;;;;;4973550;28;20241;-75
2022/02/12 11:36:10;;;;;;;6.97;2.07;;;;;;;;;;4968648;28;20692;-75
2022/02/12 11:38:37;;;;;;;7.17;1.77;;;;;;;;;;4971523;28;20288;-72
2022/02/12 11:41:25;;;;;;;6.43;1.97;;;;;;;;;;4954307;28;20270;-73
2022/02/12 11:43:54;;;;;;;5.30;1.80;;;;;;;;;;4954521;28;20231;-72
2022/02/12 11:46:51;;;;;;;7.27;1.80;;;;;;;;;;4958608;28;20224;-75
2022/02/12 11:49:32;;;;;;;4.67;1.97;;;;;;;;;;4971015;28;20221;-73
2022/02/12 11:52:04;;;;;;;5.23;2.30;;;;;;;;;;4971422;28;20226;-73
2022/02/12 11:54:44;;;;;;;5.37;2.10;;;;;;;;;;4955986;28;20223;-73
2022/02/12 11:57:31;;;;;;;6.53;2.23;;;;;;;;;;4968106;28;20265;-74
2022/02/12 12:00:00;;;;;;;8.23;2.60;;;;;;;;;;4970284;28;20253;-72
2022/02/12 12:02:51;;;;;;;7.43;2.10;;;;;;;;;;4972138;28;20329;-72
2022/02/12 12:05:24;;;;;;;4.73;1.80;;;;;;;;;;4963325;28;20627;-73
2022/02/12 12:08:06;;;;;;;6.23;2.20;;;;;;;;;;4951413;28;20246;-74
2022/02/12 12:10:48;;;;;;;6.30;2.30;;;;;;;;;;4955221;28;20244;-72
2022/02/12 12:13:14;;;;;;;5.80;2.20;;;;;;;;;;4974316;28;20226;-72
2022/02/12 12:15:51;;;;;;;7.93;2.13;;;;;;;;;;4974099;28;20230;-72
2022/02/12 12:18:21;;;;;;;4.63;1.90;;;;;;;;;;4956733;28;20226;-72
2022/02/12 12:20:47;;;;;;;8.57;2.40;;;;;;;;;;4972341;28;20727;-72
2022/02/12 12:23:14;;;;;;;8.10;2.40;;;;;;;;;;4985327;28;20223;-73
2022/02/12 12:26:03;;;;;;;5.37;1.83;;;;;;;;;;4972640;28;20226;-73
2022/02/12 12:28:42;;;;;;;10.73;2.47;;;;;;;;;;4947558;28;20238;-73
2022/02/12 12:31:14;;;;;;;11.17;2.17;;;;;;;;;;4952993;28;20230;-73
2022/02/12 12:33:44;;;;;;;10.43;2.40;;;;;;;;;;4943268;28;20231;-73
2022/02/12 12:36:13;;;;;;;5.40;2.23;;;;;;;;;;4948005;28;20305;-75
2022/02/12 12:38:46;;;;;;;8.10;2.27;;;;;;;;;;4946252;28;20237;-73
2022/02/12 12:41:31;;;;;;;5.17;2.10;;;;;;;;;;4958063;28;20240;-74
2022/02/12 12:44:18;;;;;;;5.17;2.00;;;;;;;;;;4961836;28;20226;-72
2022/02/12 12:46:51;;;;;;;7.77;1.93;;;;;;;;;;4967995;28;20292;-73
2022/02/12 12:49:40;;;;;;;5.27;2.00;;;;;;;;;;4957047;28;20222;-74
2022/02/12 12:52:15;;;;;;;7.43;2.20;;;;;;;;;;4971422;28;20289;-73
2022/02/12 12:54:42;;;;;;;6.90;2.00;;;;;;;;;;4944256;28;20232;-72
2022/02/12 12:57:11;;;;;;;6.37;2.00;;;;;;;;;;4938366;28;20221;-75
2022/02/12 12:59:51;;;;;;;5.23;1.97;;;;;;;;;;4953680;28;20226;-73
2022/02/12 13:02:17;;;;;;;6.67;2.07;;;;;;;;;;4971757;28;20222;-74
2022/02/12 13:04:53;;;;;;;6.37;2.03;;;;;;;;;;4974144;28;20226;-72
2022/02/12 13:07:27;;;;;;;5.83;2.10;;;;;;;;;;4973973;28;20229;-73
2022/02/12 13:09:56;;;;;;;6.37;2.03;;;;;;;;;;4972911;28;20617;-73
2022/02/12 13:12:35;;;;;;;7.50;2.20;;;;;;;;;;4971638;28;20227;-74
2022/02/12 13:15:08;;;;;;;4.93;1.80;;;;;;;;;;4956018;28;20237;-73
2022/02/12 13:17:43;;;;;;;7.23;2.37;;;;;;;;;;4973504;28;21001;-74
2022/02/12 13:20:18;;;;;;;6.90;2.10;;;;;;;;;;4953794;28;20590;-74
2022/02/12 13:22:53;;;;;;;7.83;2.27;;;;;;;;;;4970062;28;20281;-72
2022/02/12 13:25:21;;;;;;;6.80;2.27;;;;;;;;;;4970895;28;20314;-74
2022/02/12 13:27:47;;;;;;;4.73;2.30;;;;;;;;;;4969057;28;20218;-75
2022/02/12 13:30:14;;;;;;;7.37;2.63;;;;;;;;;;4971809;28;20238;-73
2022/02/12 13:32:44;;;;;;;10.43;3.80;;;;;;;;;;4959878;28;20230;-72
2022/02/12 13:35:12;;;;;;;10.40;2.83;;;;;;;;;;4969516;28;20222;-73
2022/02/12 13:37:40;;;;;;;9.37;2.47;;;;;;;;;;4946396;28;20242;-72
2022/02/12 13:40:10;;;;;;;7.17;2.70;;;;;;;;;;4971759;28;20218;-72
2022/02/12 13:42:36;;;;;;;9.93;2.80;;;;;;;;;;4957899;28;20613;-74
2022/02/12 13:45:06;;;;;;;6.83;2.57;;;;;;;;;;4972909;28;20277;-73
2022/02/12 13:47:32;;;;;;;5.83;2.50;;;;;;;;;;4974085;28;20232;-73
2022/02/12 13:50:01;;;;;;;5.03;2.30;;;;;;;;;;4954409;28;20231;-73
2022/02/12 13:52:26;;;;;;;6.73;2.40;;;;;;;;;;4950918;28;20227;-73
2022/02/12 13:55:05;;;;;;;7.53;2.47;;;;;;;;;;4971281;28;20222;-71
2022/02/12 13:57:31;;;;;;;9.63;2.50;;;;;;;;;;4957282;28;20248;-72
2022/02/12 13:59:59;;;;;;;7.37;2.13;;;;;;;;;;4971907;28;20691;-71
2022/02/12 14:02:25;;;;;;;7.20;2.27;;;;;;;;;;4971629;28;20652;-72
2022/02/12 14:04:54;;;;;;;8.83;3.00;;;;;;;;;;4952515;28;20619;-72
2022/02/12 14:07:19;;;;;;;5.57;2.57;;;;;;;;;;4952374;28;20219;-73
2022/02/12 14:09:48;;;;;;;6.83;2.87;;;;;;;;;;4951395;28;20308;-73
2022/02/12 14:12:14;;;;;;;5.57;2.70;;;;;;;;;;4970454;28;20222;-71
2022/02/12 14:14:39;;;;;;;5.93;2.23;;;;;;;;;;4970075;28;20280;-72
2022/02/12 14:17:05;;;;;;;5.03;2.23;;;;;;;;;;4970047;28;20233;-72
2022/02/12 14:19:30;;;;;;;4.67;2.13;;;;;;;;;;4971821;28;20221;-72
2022/02/12 14:21:58;;;;;;;6.87;1.87;;;;;;;;;;4970903;28;20608;-71
2022/02/12 14:24:26;;;;;;;7.03;2.20;;;;;;;;;;4955011;28;20229;-73
2022/02/12 14:26:57;;;;;;;5.83;2.17;;;;;;;;;;4972341;28;20237;-72
2022/02/12 14:29:25;;;;;;;7.67;2.63;;;;;;;;;;4954980;28;20237;-72
2022/02/12 14:31:51;;;;;;;5.17;2.00;;;;;;;;;;4955905;28;20257;-73
2022/02/12 14:34:17;;;;;;;6.43;1.87;;;;;;;;;;4970480;28;20300;-74
2022/02/12 14:36:54;;;;;;;6.13;1.83;;;;;;;;;;4968437;28;20229;-73
2022/02/12 14:39:22;;;;;;;4.90;1.90;;;;;;;;;;4971561;28;20309;-73
2022/02/12 14:41:47;;;;;;;8.57;1.80;;;;;;;;;;4971260;28;20226;-72
2022/02/12 14:44:15;;;;;;;6.40;2.10;;;;;;;;;;4970977;28;20268;-72
2022/02/12 14:46:43;;;;;;;2.97;1.47;;;;;;;;;;4972344;28;20224;-74
2022/02/12 14:49:14;;;;;;;5.77;1.77;;;;;;;;;;4955064;28;20230;-73
2022/02/12 14:51:41;;;;;;;5.83;2.30;;;;;;;;;;4971355;28;20720;-72
2022/02/12 14:54:09;;;;;;;5.70;1.90;;;;;;;;;;4951874;28;20254;-71